createdAt,value
2017-10-07T00:01:00.168Z,10.07
2017-10-07T00:03:26.844Z,13.07
2017-10-07T00:05:53.547Z,17.83
2017-10-07T00:08:20.216Z,18.17
2017-10-07T00:10:46.879Z,12.25
2017-10-07T00:13:13.539Z,12.65
2017-10-07T00:15:40.208Z,13.32
2017-10-07T00:18:06.903Z,11.02
2017-10-07T00:20:33.568Z,14.02
2017-10-07T00:23:00.260Z,16.85
2017-10-07T00:25:26.924Z,13.30
2017-10-07T00:27:53.590Z,14.40
2017-10-07T00:30:20.260Z,16.40
2017-10-07T00:32:46.923Z,11.43
2017-10-07T00:35:13.592Z,11.80
2017-10-07T00:37:40.268Z,16.98
2017-10-07T00:40:06.940Z,26.20
2017-10-07T00:42:33.612Z,14.90
2017-10-07T00:45:00.283Z,16.30
2017-10-07T00:47:26.952Z,13.50
2017-10-07T00:49:53.639Z,18.95
2017-10-07T00:52:20.307Z,15.40
2017-10-07T00:54:46.991Z,12.37
2017-10-07T00:57:13.659Z,11.98
2017-10-07T00:59:40.352Z,17.42
2017-10-07T01:02:07.017Z,12.68
2017-10-07T01:04:33.742Z,14.02
2017-10-07T01:07:00.650Z,10.80
2017-10-07T01:09:27.312Z,9.60
2017-10-07T01:11:53.980Z,13.30
2017-10-07T01:14:20.648Z,19.70
2017-10-07T01:16:47.320Z,12.43
2017-10-07T01:19:13.984Z,13.77
2017-10-07T01:21:40.652Z,19.05
2017-10-07T01:24:07.316Z,11.18
2017-10-07T01:26:34.010Z,14.05
2017-10-07T01:29:00.727Z,13.38
2017-10-07T01:31:27.420Z,12.70
2017-10-07T01:33:54.092Z,10.63
2017-10-07T01:36:20.780Z,16.55
2017-10-07T01:38:47.443Z,14.63
2017-10-07T01:41:14.103Z,18.73
2017-10-07T01:43:40.767Z,9.85
2017-10-07T01:46:07.435Z,20.75
2017-10-07T01:48:34.117Z,14.50
2017-10-07T01:51:00.788Z,18.50
2017-10-07T01:53:27.476Z,13.07
2017-10-07T01:55:54.140Z,15.40
2017-10-07T01:58:20.833Z,16.12
2017-10-07T02:00:47.499Z,13.45
2017-10-07T02:03:14.163Z,9.50
2017-10-07T02:05:40.828Z,12.95
2017-10-07T02:08:07.491Z,15.82
2017-10-07T02:10:34.146Z,9.15
2017-10-07T02:13:00.815Z,10.55
2017-10-07T02:15:27.480Z,13.07
2017-10-07T02:17:54.147Z,14.48
2017-10-07T02:20:20.844Z,14.73
2017-10-07T02:22:47.508Z,12.70
2017-10-07T02:25:14.171Z,10.00
2017-10-07T02:27:40.827Z,9.43
2017-10-07T02:30:07.492Z,14.95
2017-10-07T02:32:34.163Z,8.82
2017-10-07T02:35:00.828Z,13.02
2017-10-07T02:37:27.491Z,10.70
2017-10-07T02:39:54.160Z,12.15
2017-10-07T02:42:20.824Z,11.75
2017-10-07T02:44:47.495Z,17.87
2017-10-07T02:47:14.159Z,11.27
2017-10-07T02:49:40.815Z,14.95
2017-10-07T02:52:07.507Z,19.80
2017-10-07T02:54:34.167Z,13.45
2017-10-07T02:57:00.832Z,13.45
2017-10-07T02:59:27.516Z,14.48
2017-10-07T03:01:54.196Z,11.02
2017-10-07T03:04:20.895Z,8.02
2017-10-07T03:06:47.555Z,13.93
2017-10-07T03:09:14.247Z,14.32
2017-10-07T03:11:40.908Z,16.48
2017-10-07T03:14:07.567Z,9.48
2017-10-07T03:16:34.228Z,13.05
2017-10-07T03:19:00.883Z,8.80
2017-10-07T03:21:27.572Z,7.45
2017-10-07T03:23:54.235Z,10.68
2017-10-07T03:26:20.924Z,12.63
2017-10-07T03:28:47.588Z,12.25
2017-10-07T03:31:14.275Z,7.97
2017-10-07T03:33:40.935Z,8.63
2017-10-07T03:36:07.625Z,8.00
2017-10-07T03:38:34.283Z,9.65
2017-10-07T03:41:00.967Z,13.60
2017-10-07T03:43:27.635Z,6.70
2017-10-07T03:45:54.337Z,7.28
2017-10-07T03:48:21.003Z,12.63
2017-10-07T03:50:47.667Z,10.60
2017-10-07T03:53:14.327Z,7.57
2017-10-07T03:55:41.003Z,10.55
2017-10-07T03:58:07.683Z,10.45
2017-10-07T04:00:34.348Z,11.20
2017-10-07T04:03:01.035Z,11.43
2017-10-07T04:05:27.695Z,12.37
2017-10-07T04:07:54.371Z,11.05
2017-10-07T04:10:21.036Z,11.20
2017-10-07T04:12:47.719Z,13.18
2017-10-07T04:15:14.374Z,13.02
2017-10-07T04:17:41.068Z,7.82
2017-10-07T04:20:07.727Z,9.80
2017-10-07T04:22:34.386Z,8.23
2017-10-07T04:25:01.044Z,7.22
2017-10-07T04:27:27.702Z,7.28
2017-10-07T04:29:54.359Z,6.85
2017-10-07T04:32:21.020Z,6.60
2017-10-07T04:34:47.676Z,7.80
2017-10-07T04:37:14.331Z,9.05
2017-10-07T04:39:40.992Z,11.07
2017-10-07T04:42:07.660Z,5.40
2017-10-07T04:44:34.349Z,5.90
2017-10-07T04:47:01.012Z,4.90
2017-10-07T04:49:27.699Z,6.72
2017-10-07T04:51:54.360Z,4.65
2017-10-07T04:54:21.044Z,4.53
2017-10-07T04:56:47.703Z,8.27
2017-10-07T04:59:14.395Z,3.92
2017-10-07T05:01:41.055Z,6.20
2017-10-07T05:04:07.725Z,7.82
2017-10-07T05:06:34.383Z,6.18
2017-10-07T05:09:01.044Z,6.95
2017-10-07T05:11:27.703Z,8.95
2017-10-07T05:13:54.359Z,5.03
2017-10-07T05:16:21.021Z,5.97
2017-10-07T05:18:47.687Z,6.87
2017-10-07T05:21:14.363Z,6.28
2017-10-07T05:23:41.020Z,5.20
2017-10-07T05:26:07.699Z,6.05
2017-10-07T05:28:34.351Z,7.15
2017-10-07T05:31:01.052Z,9.35
2017-10-07T05:33:27.714Z,4.72
2017-10-07T05:35:54.379Z,5.07
2017-10-07T05:38:21.039Z,7.75
2017-10-07T05:40:47.691Z,7.57
2017-10-07T05:43:14.348Z,6.80
2017-10-07T05:45:41.011Z,7.97
2017-10-07T05:48:07.671Z,5.78
2017-10-07T05:50:34.332Z,6.45
2017-10-07T05:53:01.028Z,8.23
2017-10-07T05:55:27.691Z,6.03
2017-10-07T05:57:54.372Z,9.82
2017-10-07T06:00:21.032Z,9.68
2017-10-07T06:02:47.713Z,7.15
2017-10-07T06:05:14.371Z,13.82
2017-10-07T06:07:41.043Z,12.55
2017-10-07T06:10:07.708Z,8.88
2017-10-07T06:12:34.371Z,12.52
2017-10-07T06:15:01.029Z,7.35
2017-10-07T06:17:27.691Z,11.25
2017-10-07T06:19:54.355Z,9.45
2017-10-07T06:22:21.016Z,10.20
2017-10-07T06:24:47.715Z,14.15
2017-10-07T06:27:14.375Z,7.37
2017-10-07T06:29:41.041Z,12.88
2017-10-07T06:32:07.703Z,11.15
2017-10-07T06:34:34.363Z,13.68
2017-10-07T06:37:01.028Z,9.85
2017-10-07T06:39:27.691Z,9.57
2017-10-07T06:41:54.355Z,11.10
2017-10-07T06:44:21.015Z,9.70
2017-10-07T06:46:47.856Z,12.57
2017-10-07T06:49:14.517Z,9.93
2017-10-07T06:51:41.171Z,14.25
2017-10-07T06:54:07.835Z,12.18
2017-10-07T06:56:34.499Z,15.52
2017-10-07T06:59:01.188Z,8.20
2017-10-07T07:01:27.903Z,12.07
2017-10-07T07:03:54.624Z,11.85
2017-10-07T07:06:21.283Z,8.13
2017-10-07T07:08:47.972Z,10.55
2017-10-07T07:11:14.623Z,7.05
2017-10-07T07:13:41.316Z,11.85
2017-10-07T07:16:07.979Z,10.80
2017-10-07T07:18:34.643Z,10.10
2017-10-07T07:21:01.417Z,10.10
2017-10-07T07:23:28.080Z,10.32
2017-10-07T07:25:54.780Z,10.07
2017-10-07T07:28:21.455Z,14.27
2017-10-07T07:30:48.139Z,10.50
2017-10-07T07:33:14.808Z,12.52
2017-10-07T07:35:41.499Z,9.40
2017-10-07T07:38:08.159Z,8.48
2017-10-07T07:40:34.855Z,10.50
2017-10-07T07:43:01.540Z,12.85
2017-10-07T07:45:28.199Z,11.52
2017-10-07T07:47:54.860Z,7.82
2017-10-07T07:50:21.528Z,13.70
2017-10-07T07:52:48.202Z,9.13
2017-10-07T07:55:14.907Z,9.45
2017-10-07T07:57:41.595Z,10.35
2017-10-07T08:00:08.260Z,13.20
2017-10-07T08:02:34.962Z,11.63
2017-10-07T08:05:01.655Z,8.40
2017-10-07T08:07:28.341Z,13.27
2017-10-07T08:09:55.003Z,11.02
2017-10-07T08:12:21.671Z,9.38
2017-10-07T08:14:48.344Z,9.85
2017-10-07T08:17:15.009Z,18.33
2017-10-07T08:19:41.673Z,12.73
2017-10-07T08:22:08.343Z,14.30
2017-10-07T08:24:35.008Z,14.35
2017-10-07T08:27:01.673Z,11.77
2017-10-07T08:29:28.368Z,12.32
2017-10-07T08:31:55.044Z,10.70
2017-10-07T08:34:21.747Z,11.02
2017-10-07T08:36:48.404Z,9.23
2017-10-07T08:39:15.068Z,10.05
2017-10-07T08:41:41.818Z,15.35
2017-10-07T08:44:08.474Z,13.95
2017-10-07T08:46:35.135Z,10.93
2017-10-07T08:49:01.815Z,22.58
2017-10-07T08:51:28.479Z,14.25
2017-10-07T08:53:55.144Z,12.75
2017-10-07T08:56:21.814Z,8.95
2017-10-07T08:58:48.483Z,11.63
2017-10-07T09:01:15.163Z,11.30
2017-10-07T09:03:41.823Z,20.12
2017-10-07T09:06:08.500Z,13.95
2017-10-07T09:08:35.179Z,11.05
2017-10-07T09:11:01.856Z,14.95
2017-10-07T09:13:28.530Z,16.52
2017-10-07T09:15:55.244Z,11.30
2017-10-07T09:18:21.911Z,16.17
2017-10-07T09:20:48.599Z,11.70
2017-10-07T09:23:15.276Z,10.38
2017-10-07T09:25:41.960Z,16.77
2017-10-07T09:28:08.659Z,11.57
2017-10-07T09:30:35.323Z,14.00
2017-10-07T09:33:02.008Z,11.88
2017-10-07T09:35:28.687Z,11.80
2017-10-07T09:37:55.375Z,16.50
2017-10-07T09:40:22.035Z,18.55
2017-10-07T09:42:48.725Z,11.25
2017-10-07T09:45:15.387Z,11.50
2017-10-07T09:47:42.092Z,11.43
2017-10-07T09:50:08.751Z,11.50
2017-10-07T09:52:35.464Z,11.85
2017-10-07T09:55:02.136Z,11.00
2017-10-07T09:57:28.795Z,8.15
2017-10-07T09:59:55.483Z,9.43
2017-10-07T10:02:22.156Z,11.68
2017-10-07T10:04:48.849Z,10.57
2017-10-07T10:07:16.004Z,11.98
2017-10-07T10:09:42.698Z,11.30
2017-10-07T10:12:09.363Z,12.60
2017-10-07T10:14:36.055Z,10.88
2017-10-07T10:17:02.716Z,9.75
2017-10-07T10:19:29.420Z,10.38
2017-10-07T10:21:56.095Z,11.02
2017-10-07T10:24:22.755Z,8.10
2017-10-07T10:26:49.420Z,11.05
2017-10-07T10:29:16.084Z,11.45
2017-10-07T10:31:42.776Z,9.60
2017-10-07T10:34:09.443Z,8.88
2017-10-07T10:36:36.144Z,10.40
2017-10-07T10:39:02.809Z,7.65
2017-10-07T10:41:29.516Z,11.70
2017-10-07T10:43:56.180Z,9.25
2017-10-07T10:46:22.847Z,7.12
2017-10-07T10:48:49.508Z,7.07
2017-10-07T10:51:16.171Z,11.70
2017-10-07T10:53:42.832Z,13.68
2017-10-07T10:56:09.492Z,7.07
2017-10-07T10:58:36.151Z,7.90
2017-10-07T11:01:02.817Z,8.20
2017-10-07T11:03:29.485Z,9.90
2017-10-07T11:05:56.155Z,11.25
2017-10-07T11:08:22.842Z,7.20
2017-10-07T11:10:49.503Z,7.28
2017-10-07T11:13:16.194Z,7.72
2017-10-07T11:15:42.863Z,11.85
2017-10-07T11:18:09.561Z,8.95
2017-10-07T11:20:36.225Z,9.73
2017-10-07T11:23:02.895Z,6.80
2017-10-07T11:25:29.551Z,8.90
2017-10-07T11:27:56.216Z,4.97
2017-10-07T11:30:22.881Z,7.05
2017-10-07T11:32:49.543Z,6.12
2017-10-07T11:35:16.232Z,5.47
2017-10-07T11:37:42.900Z,8.57
2017-10-07T11:40:09.587Z,7.50
2017-10-07T11:42:36.260Z,6.70
2017-10-07T11:45:02.963Z,10.05
2017-10-07T11:47:29.627Z,6.43
2017-10-07T11:49:56.287Z,7.65
2017-10-07T11:52:22.948Z,5.53
2017-10-07T11:54:49.608Z,9.35
2017-10-07T11:57:16.298Z,7.07
2017-10-07T11:59:42.955Z,6.85
2017-10-07T12:02:09.635Z,8.77
2017-10-07T12:04:36.295Z,7.95
2017-10-07T12:07:02.979Z,7.30
2017-10-07T12:09:29.640Z,9.70
2017-10-07T12:11:56.327Z,6.10
2017-10-07T12:14:22.996Z,9.18
2017-10-07T12:16:49.692Z,9.05
2017-10-07T12:19:16.421Z,7.85
2017-10-07T12:21:43.084Z,6.43
2017-10-07T12:24:09.739Z,5.65
2017-10-07T12:26:36.407Z,8.05
2017-10-07T12:29:03.064Z,6.35
2017-10-07T12:31:29.727Z,10.27
2017-10-07T12:33:56.384Z,8.13
2017-10-07T12:36:23.092Z,7.47
2017-10-07T12:38:49.757Z,6.53
2017-10-07T12:41:16.419Z,8.25
2017-10-07T12:43:43.074Z,8.05
2017-10-07T12:46:09.736Z,7.87
2017-10-07T12:48:36.399Z,7.75
2017-10-07T12:51:03.060Z,8.27
2017-10-07T12:53:29.743Z,11.95
2017-10-07T12:55:56.398Z,6.75
2017-10-07T12:58:23.092Z,6.05
2017-10-07T13:00:49.752Z,8.77
2017-10-07T13:03:16.412Z,8.52
2017-10-07T13:05:43.083Z,4.47
2017-10-07T13:08:09.743Z,5.03
2017-10-07T13:10:36.416Z,5.37
2017-10-07T13:13:03.079Z,3.67
2017-10-07T13:15:29.748Z,4.90
2017-10-07T13:17:56.416Z,5.70
2017-10-07T13:20:23.084Z,3.90
2017-10-07T13:22:49.744Z,4.00
2017-10-07T13:25:16.423Z,5.85
2017-10-07T13:27:43.087Z,4.43
2017-10-07T13:30:09.783Z,5.55
2017-10-07T13:32:36.448Z,4.03
2017-10-07T13:35:03.113Z,4.70
2017-10-07T13:37:29.771Z,3.72
2017-10-07T13:39:56.444Z,4.60
2017-10-07T13:42:23.104Z,3.22
2017-10-07T13:44:49.767Z,3.40
2017-10-07T13:47:16.433Z,3.10
2017-10-07T13:49:43.091Z,3.37
2017-10-07T13:52:09.775Z,3.35
2017-10-07T13:54:36.447Z,3.50
2017-10-07T13:57:03.122Z,3.00
2017-10-07T13:59:29.791Z,2.70
2017-10-07T14:01:56.475Z,5.22
2017-10-07T14:04:23.194Z,2.72
2017-10-07T14:06:49.851Z,2.90
2017-10-07T14:09:16.511Z,2.95
2017-10-07T14:11:43.171Z,3.30
2017-10-07T14:14:09.831Z,2.78
2017-10-07T14:16:36.500Z,2.72
2017-10-07T14:19:03.177Z,2.97
2017-10-07T14:21:29.842Z,2.85
2017-10-07T14:23:56.536Z,6.37
2017-10-07T14:26:23.200Z,3.40
2017-10-07T14:28:49.907Z,3.03
2017-10-07T14:31:16.564Z,3.03
2017-10-07T14:33:43.227Z,3.45
2017-10-07T14:36:09.887Z,3.37
2017-10-07T14:38:36.548Z,3.75
2017-10-07T14:41:03.211Z,3.70
2017-10-07T14:43:29.876Z,3.47
2017-10-07T14:45:56.543Z,4.85
2017-10-07T14:48:23.213Z,3.58
2017-10-07T14:50:49.896Z,3.55
2017-10-07T14:53:16.564Z,3.35
2017-10-07T14:55:43.255Z,3.97
2017-10-07T14:58:09.919Z,3.20
2017-10-07T15:00:36.602Z,3.67
2017-10-07T15:03:03.268Z,3.72
2017-10-07T15:05:29.971Z,4.20
2017-10-07T15:07:56.632Z,3.72
2017-10-07T15:10:23.287Z,3.50
2017-10-07T15:12:49.944Z,4.00
2017-10-07T15:15:16.602Z,3.58
2017-10-07T15:17:43.260Z,4.62
2017-10-07T15:20:09.919Z,3.60
2017-10-07T15:22:36.579Z,3.75
2017-10-07T15:25:03.232Z,5.35
2017-10-07T15:27:29.915Z,3.70
2017-10-07T15:29:56.580Z,3.40
2017-10-07T15:32:23.272Z,4.07
2017-10-07T15:34:49.930Z,3.95
2017-10-07T15:37:16.626Z,3.35
2017-10-07T15:39:43.291Z,3.50
2017-10-07T15:42:09.995Z,3.97
2017-10-07T15:44:36.656Z,3.62
2017-10-07T15:47:03.315Z,3.72
2017-10-07T15:49:29.979Z,3.55
2017-10-07T15:51:56.639Z,3.53
2017-10-07T15:54:23.300Z,3.47
2017-10-07T15:56:49.964Z,3.20
2017-10-07T15:59:16.632Z,6.10
2017-10-07T16:01:43.290Z,3.40
2017-10-07T16:04:09.984Z,3.40
2017-10-07T16:06:36.646Z,4.07
2017-10-07T16:09:03.339Z,3.83
2017-10-07T16:11:30.000Z,4.15
2017-10-07T16:19:28.128Z,3.47
2017-10-07T16:30:10.819Z,3.20
2017-10-07T16:32:37.484Z,3.85
2017-10-07T16:35:04.208Z,4.03
2017-10-07T16:37:30.867Z,3.87
2017-10-07T16:42:43.287Z,4.32
2017-10-07T16:45:09.987Z,3.67
2017-10-07T16:47:36.647Z,3.53
2017-10-07T16:52:49.455Z,3.12
2017-10-07T16:58:01.539Z,3.80
2017-10-07T17:03:14.352Z,3.10
2017-10-07T17:05:41.012Z,3.17
2017-10-07T17:08:07.699Z,2.95
2017-10-07T17:10:34.369Z,3.90
2017-10-07T17:13:01.054Z,3.00
2017-10-07T17:18:13.031Z,3.60
2017-10-07T17:28:56.484Z,4.47
2017-10-07T17:47:56.039Z,4.40
2017-10-07T17:53:08.153Z,4.20
2017-10-07T18:01:06.395Z,4.37
2017-10-07T18:11:49.267Z,4.22
2017-10-07T18:17:01.431Z,6.40
2017-10-07T18:19:28.095Z,5.35
2017-10-07T18:24:40.911Z,5.80
2017-10-07T18:32:39.185Z,6.72
2017-10-07T18:35:05.851Z,5.87
2017-10-07T18:43:03.576Z,5.80
2017-10-07T18:48:15.659Z,5.72
2017-10-07T18:56:13.215Z,6.50
2017-10-07T19:04:10.892Z,7.03
2017-10-07T19:06:37.568Z,6.28
2017-10-07T19:09:04.223Z,6.93
2017-10-07T19:22:32.231Z,8.48
2017-10-07T19:24:58.903Z,7.70
2017-10-07T19:43:59.199Z,8.35
2017-10-07T20:13:57.271Z,7.90
2017-10-07T21:23:08.877Z,6.32
2017-10-07T22:17:19.969Z,10.55
2017-10-07T22:20:00.282Z,12.10
2017-10-07T22:25:13.824Z,12.15
2017-10-07T22:30:26.986Z,11.15
2017-10-07T22:46:39.788Z,13.02
2017-10-07T22:49:06.501Z,15.20
2017-10-07T22:54:18.816Z,17.80
2017-10-07T22:56:45.573Z,18.30
2017-10-07T23:01:57.794Z,14.93
2017-10-07T23:04:24.576Z,14.85
2017-10-07T23:09:36.764Z,14.60
2017-10-07T23:14:49.008Z,15.60
2017-10-07T23:20:02.323Z,14.48
2017-10-07T23:22:32.915Z,14.68
2017-10-07T23:24:59.637Z,16.25
